Bw Cedar — 2GXK7 — position and weather

sailwx.info

Track history (hours):
 
Tides and Currents Weather Stations Pressure Air Temp Water Temp Dewpoint Dewpoint Depression Visibility Wind Speed Wind Dir Waves Ship Positions

Bw Cedar

Last reported at 2017-Sep-07 15:54 UTC. Time now 2017-Sep-25 01:08 UTC.
Position N 29°21' W 094°47'.
Warning: this ship's position is 17 days out of date.

Length 225 m; draft 11.9 m.

Type: Tanker. MMSI: 235101302.

Date/timePositionNaut miles runAvg speedWind from/ knotsBaromVisibWave heightAir tempDewpointWater temp
2017-Sep-07 15:54N 29°21' W 094°47'511.9
2017-Sep-07 15:28N 29°26' W 094°50'510.9
2017-Sep-07 15:00N 29°30' W 094°52'510.7
2017-Sep-07 14:30N 29°35' W 094°56'510.8
2017-Sep-07 14:00N 29°39' W 094°58'4 8.7
2017-Sep-07 13:30N 29°43' W 095°01'4 7.3
2017-Sep-07 13:00N 29°46' W 095°04'3 5.9
2017-Sep-07 12:30N 29°44' W 095°07'0 0.0
2017-Sep-05 16:42N 29°44' W 095°08'0 0.2
2017-Sep-05 16:29N 29°44' W 095°08'0 0.6
2017-Sep-05 16:00N 29°44' W 095°07'2 4.8
2017-Sep-05 15:30N 29°46' W 095°05'4 7.1
2017-Sep-05 15:00N 29°44' W 095°02'4 8.3
2017-Sep-05 14:30N 29°41' W 094°59'611.5
2017-Sep-05 14:00N 29°35' W 094°56'612.2
2017-Sep-05 13:30N 29°30' W 094°52'713.4
2017-Sep-05 13:00N 29°24' W 094°49'610.0
2017-Sep-05 12:23N 29°21' W 094°43'  
Track history (hours):
 
Tides and Currents Weather Stations Pressure Air Temp Water Temp Dewpoint Dewpoint Depression Visibility Wind Speed Wind Dir Waves Ship Positions

Bw Cedar

Last reported at 2017-Sep-07 15:54 UTC. Time now 2017-Sep-25 01:08 UTC.
Position N 29°21' W 094°47'.
Warning: this ship's position is 17 days out of date.

Length 225 m; draft 11.9 m.

Type: Tanker. MMSI: 235101302.

Date/timePositionNaut miles runAvg speedWind from/ knotsBaromVisibWave heightAir tempDewpointWater temp
2017-Sep-07 15:54N 29°21' W 094°47'511.9
2017-Sep-07 15:28N 29°26' W 094°50'510.9
2017-Sep-07 15:00N 29°30' W 094°52'510.7
2017-Sep-07 14:30N 29°35' W 094°56'510.8
2017-Sep-07 14:00N 29°39' W 094°58'4 8.7
2017-Sep-07 13:30N 29°43' W 095°01'4 7.3
2017-Sep-07 13:00N 29°46' W 095°04'3 5.9
2017-Sep-07 12:30N 29°44' W 095°07'0 0.0
2017-Sep-05 16:42N 29°44' W 095°08'0 0.2
2017-Sep-05 16:29N 29°44' W 095°08'0 0.6
2017-Sep-05 16:00N 29°44' W 095°07'2 4.8
2017-Sep-05 15:30N 29°46' W 095°05'4 7.1
2017-Sep-05 15:00N 29°44' W 095°02'4 8.3
2017-Sep-05 14:30N 29°41' W 094°59'611.5
2017-Sep-05 14:00N 29°35' W 094°56'612.2
2017-Sep-05 13:30N 29°30' W 094°52'713.4
2017-Sep-05 13:00N 29°24' W 094°49'610.0
2017-Sep-05 12:23N 29°21' W 094°43'  

Dump ship's entire track history